Phoenix, Arizona
Traffic Map
Current Weather Conditions
Phoenix, Arizona
Scattered Clouds
Scattered Clouds
79°
Feels Like: 79°
Wind Chill: 79° Ceiling: Unl
Heat Index: 79° Visibility: 10mi
Dew Point: 50° Wind: 5mph
Humidity: 36% Direction: ° ()
Pressure: 29.9in Gusts: 0mph
Raw Report DataKPHX 280651Z VRB04KT 10SM SCT250 26/10 A2990 RMK AO2 SLP110 T02610100 403110206 $
Traffic Incident Summary
Active as of:
Severity:
Category:
InformationThere was an issue retrieving the traffic information for this location. Please try a different location or try again shortly.
Advertisements
Track Severe Weather on mobile